Erzurum International Airport
LTCE : now visible

Airfield :











YOU CAN JOIN US ON...

 
LOGIN :

Register | Disclaimer

   EN    FR    IT 

 









Legend :    VFR   Marginal VFR   IFR   Intensive IFR   Very Intensive IFR
Visi :
Ceiling :
>= 8 km
>= 3000ft
5 to 8 km
1000 to 3000 ft
1500m to 5 km
500 to 1000 ft
800 to 1500m
200 to 500 ft
< 800m
< 200 ft
Symbols :   Thunderstorms  Fog  Heavy snow  Heavy precipitations  Wind > 20 kt






- Airport Elevation : 5763 ft
- IATA code : ERZ


LTCE - Erzurum International

CURRENT METAR :
  • 221750Z 22006KT CAVOK 08/M01 Q1028 NOSIG

EXPIRED METARs :
  • 221720Z 22006KT CAVOK 09/M01 Q1027 NOSIG
  • 221650Z 22005KT CAVOK 09/M01 Q1027 NOSIG RMK RWY08R 17004KT RWY26R 22006KT RWY08L 18004KT
  • 221620Z 20005KT CAVOK 10/M01 Q1027 NOSIG
  • 221550Z VRB02KT CAVOK 10/M01 Q1027 NOSIG RMK RWY08R VRB02KT RWY26R 19002KT RWY08L VRB02KT
  • 221520Z 25003KT 210V320 CAVOK 12/M01 Q1027 NOSIG RMK RWY08R 26005KT RWY26R 31005KT RWY08L 30006KT 280V340

TAF TAF LTCE
Valid from the 22 at 18:00 until the 23 at 18:00 UTC


221640Z 2218/2318 VRB02KT CAVOK



MET'MAP, your aeronautical weather chart ! - Copyright ORBIFLY December 2007 - Disclaimer

ORBIFLY MET'MAP TEAM :

Programming & Development : Alexandra Zaïnal
Concept & original design : Baudouin d'Aumeries
Assistance for programming : Marc-Olivier Méhu
Technical & hardware support : Manuel Goepfert

Contact : metmap@orbifly.com




SOURCES & CREDITS :

   NOAA       Earth
Advisory